Terminal Aerodrome Forecast
Issued by NWS

Home | Current Version | Previous Version | Graphics & Text | Print | Product List | Glossary On
Versions: 1 2 3 4 5 6 7 8 9 10 11 12 13 14 15 16 17 18 19 20 21 22
654
FTUS43 KBIS 201127
TAFMOT
TAF
KMOT 201127Z 2012/2112 22005KT 6SM BR SKC
      TEMPO 2012/2016 3SM BR FEW003
     FM201900 14005KT 2SM BR BKN011
     FM202300 12004KT 3SM BR BKN007 OVC010
     FM210100 11003KT 1SM BR OVC003=

USA.gov is the U.S. government's official web portal to all federal, state and local government web resources and services.